createdAt,value
2022-11-06T00:00:21.149Z,20.50
2022-11-06T00:03:03.233Z,14.10
2022-11-06T00:05:53.263Z,12.50
2022-11-06T00:08:33.674Z,14.50
2022-11-06T00:11:12.061Z,12.70
2022-11-06T00:13:45.459Z,16.80
2022-11-06T00:16:17.788Z,23.20
2022-11-06T00:18:50.745Z,21.70
2022-11-06T00:21:26.622Z,16.20
2022-11-06T00:24:01.083Z,19.20
2022-11-06T00:26:34.723Z,15.90
2022-11-06T00:29:07.801Z,18.00
2022-11-06T00:31:40.443Z,17.40
2022-11-06T00:34:13.301Z,18.10
2022-11-06T00:36:45.520Z,19.80
2022-11-06T00:39:17.989Z,19.90
2022-11-06T00:41:50.189Z,27.50
2022-11-06T00:44:22.974Z,32.00
2022-11-06T00:46:55.103Z,33.10
2022-11-06T00:49:28.666Z,34.70
2022-11-06T00:52:01.327Z,36.50
2022-11-06T00:54:33.744Z,33.90
2022-11-06T00:57:07.120Z,27.50
2022-11-06T00:59:39.285Z,23.50
2022-11-06T01:02:11.699Z,22.80
2022-11-06T01:04:44.362Z,21.30
2022-11-06T01:07:16.633Z,22.20
2022-11-06T01:09:48.943Z,24.20
2022-11-06T01:12:21.159Z,22.50
2022-11-06T01:14:53.503Z,24.20
2022-11-06T01:17:26.089Z,37.80
2022-11-06T01:19:58.241Z,38.90
2022-11-06T01:22:30.436Z,29.80
2022-11-06T01:25:03.043Z,30.70
2022-11-06T01:27:35.491Z,28.80
2022-11-06T01:30:09.896Z,28.60
2022-11-06T01:32:42.182Z,29.90
2022-11-06T01:35:14.373Z,24.70
2022-11-06T01:37:47.002Z,22.50
2022-11-06T01:40:19.345Z,25.50
2022-11-06T01:42:51.553Z,23.30
2022-11-06T01:45:32.687Z,22.00
2022-11-06T01:48:05.433Z,22.00
2022-11-06T01:50:38.361Z,24.70
2022-11-06T01:53:10.915Z,26.90
2022-11-06T01:55:46.567Z,25.70
2022-11-06T01:58:21.885Z,32.70
2022-11-06T02:00:54.184Z,29.40
2022-11-06T02:03:26.916Z,25.80
2022-11-06T02:06:00.385Z,27.40
2022-11-06T02:08:33.168Z,32.90
2022-11-06T02:11:06.002Z,33.60
2022-11-06T02:13:44.776Z,34.80
2022-11-06T02:16:23.164Z,33.10
2022-11-06T02:19:13.867Z,32.90
2022-11-06T02:22:12.224Z,33.60
2022-11-06T02:25:09.890Z,37.20
2022-11-06T02:27:45.529Z,30.90
2022-11-06T02:30:19.554Z,30.60
2022-11-06T02:32:59.220Z,29.10
2022-11-06T02:35:36.175Z,20.90
2022-11-06T02:38:12.589Z,17.30
2022-11-06T02:40:50.496Z,17.60
2022-11-06T02:43:25.611Z,19.50
2022-11-06T02:46:03.486Z,25.10
2022-11-06T02:48:42.514Z,21.20
2022-11-06T02:51:18.878Z,19.40
2022-11-06T02:53:51.742Z,20.00
2022-11-06T02:56:28.521Z,19.30
2022-11-06T02:59:04.551Z,18.70
2022-11-06T03:01:40.418Z,21.20
2022-11-06T03:04:17.798Z,17.10
2022-11-06T03:06:55.600Z,20.50
2022-11-06T03:09:33.261Z,18.50
2022-11-06T03:12:18.032Z,24.70
2022-11-06T03:14:58.798Z,21.40
2022-11-06T03:17:44.102Z,23.00
2022-11-06T03:22:58.275Z,27.90
2022-11-06T03:25:35.968Z,26.20
2022-11-06T03:28:13.459Z,29.60
2022-11-06T03:30:51.489Z,28.40
2022-11-06T03:33:31.596Z,25.40
2022-11-06T03:36:10.151Z,24.70
2022-11-06T03:38:46.258Z,22.80
2022-11-06T03:41:23.976Z,21.20
2022-11-06T03:44:00.802Z,20.10
2022-11-06T03:46:34.300Z,18.10
2022-11-06T03:49:10.723Z,20.10
2022-11-06T03:51:46.520Z,20.10
2022-11-06T03:54:23.373Z,18.90
2022-11-06T03:57:01.854Z,16.00
2022-11-06T03:59:39.338Z,22.40
2022-11-06T04:02:14.381Z,21.30
2022-11-06T04:04:52.838Z,17.60
2022-11-06T04:07:29.508Z,16.90
2022-11-06T04:10:22.203Z,14.70
2022-11-06T04:13:14.370Z,15.20
2022-11-06T04:15:53.251Z,22.30
2022-11-06T04:18:25.417Z,19.10
2022-11-06T04:21:23.112Z,18.80
2022-11-06T04:24:26.941Z,25.30
2022-11-06T04:27:12.729Z,26.50
2022-11-06T04:30:00.107Z,26.70
2022-11-06T04:32:41.877Z,24.70
2022-11-06T04:35:22.615Z,19.90
2022-11-06T04:38:02.522Z,17.50
2022-11-06T04:40:46.541Z,16.60
2022-11-06T04:43:31.482Z,19.40
2022-11-06T04:46:07.600Z,19.20
2022-11-06T04:48:40.993Z,17.00
2022-11-06T04:51:15.102Z,18.20
2022-11-06T04:53:50.469Z,21.00
2022-11-06T04:56:29.419Z,19.80
2022-11-06T04:59:02.665Z,20.00
2022-11-06T05:01:35.322Z,16.30
2022-11-06T05:04:07.973Z,17.70
2022-11-06T05:06:40.201Z,17.80
2022-11-06T05:09:12.413Z,17.70
2022-11-06T05:11:44.556Z,16.30
2022-11-06T05:14:16.725Z,15.80
2022-11-06T05:16:48.912Z,19.10
2022-11-06T05:19:21.065Z,16.70
2022-11-06T05:22:11.047Z,16.10
2022-11-06T05:24:43.191Z,16.10
2022-11-06T05:27:15.448Z,16.30
2022-11-06T05:29:47.706Z,17.00
2022-11-06T05:32:19.875Z,19.00
2022-11-06T05:34:52.048Z,18.80
2022-11-06T05:37:24.850Z,22.60
2022-11-06T05:39:57.070Z,37.90
2022-11-06T05:42:29.365Z,34.00
2022-11-06T05:45:01.516Z,32.60
2022-11-06T05:47:34.031Z,30.60
2022-11-06T05:50:07.022Z,29.40
2022-11-06T05:52:39.807Z,35.60
2022-11-06T05:55:15.055Z,38.30
2022-11-06T05:57:47.572Z,30.60
2022-11-06T06:00:21.546Z,24.60
2022-11-06T06:02:53.862Z,36.30
2022-11-06T06:05:26.028Z,36.40
2022-11-06T06:07:58.242Z,52.40
2022-11-06T06:10:30.413Z,60.80
2022-11-06T06:13:02.700Z,55.40
2022-11-06T06:15:35.082Z,147.70
2022-11-06T06:18:08.373Z,521.10
2022-11-06T06:20:40.951Z,395.00
2022-11-06T06:23:13.504Z,117.70
2022-11-06T06:25:45.800Z,112.70
2022-11-06T06:28:17.974Z,62.70
2022-11-06T06:30:50.291Z,34.70
2022-11-06T06:33:22.509Z,32.60
2022-11-06T06:35:55.142Z,20.30
2022-11-06T06:38:27.406Z,18.80
2022-11-06T06:41:03.926Z,20.10
2022-11-06T06:43:37.103Z,24.10
2022-11-06T06:46:09.802Z,33.80
2022-11-06T06:48:41.906Z,30.90
2022-11-06T06:51:14.071Z,23.00
2022-11-06T06:53:46.347Z,19.80
2022-11-06T06:56:18.554Z,14.10
2022-11-06T06:58:50.926Z,14.00
2022-11-06T07:01:23.705Z,12.60
2022-11-06T07:04:01.345Z,15.30
2022-11-06T07:06:36.107Z,17.60
2022-11-06T07:09:08.557Z,26.90
2022-11-06T07:11:40.850Z,24.20
2022-11-06T07:14:13.507Z,17.10
2022-11-06T07:16:51.078Z,13.90
2022-11-06T07:19:25.781Z,16.00
2022-11-06T07:21:58.098Z,20.20
2022-11-06T07:24:30.423Z,48.60
2022-11-06T07:27:02.618Z,64.20
2022-11-06T07:29:34.914Z,58.00
2022-11-06T07:32:11.055Z,29.60
2022-11-06T07:34:43.430Z,38.40
2022-11-06T07:37:15.590Z,31.00
2022-11-06T07:39:47.810Z,18.80
2022-11-06T07:42:19.991Z,21.60
2022-11-06T07:45:02.365Z,28.80
2022-11-06T07:47:34.708Z,28.00
2022-11-06T07:50:08.125Z,81.70
2022-11-06T07:52:40.273Z,37.80
2022-11-06T07:55:13.108Z,22.60
2022-11-06T07:57:45.278Z,17.40
2022-11-06T08:00:18.371Z,17.90
2022-11-06T08:02:53.983Z,19.60
2022-11-06T08:05:26.388Z,20.10
2022-11-06T08:08:00.477Z,20.60
2022-11-06T08:10:32.645Z,21.00
2022-11-06T08:13:04.840Z,20.00
2022-11-06T08:15:38.239Z,21.60
2022-11-06T08:18:12.615Z,14.90
2022-11-06T08:20:45.077Z,12.40
2022-11-06T08:23:17.302Z,18.50
2022-11-06T08:25:49.437Z,14.50
2022-11-06T08:28:21.715Z,12.40
2022-11-06T08:30:54.384Z,12.50
2022-11-06T08:33:27.274Z,11.60
2022-11-06T08:36:01.702Z,17.90
2022-11-06T08:38:34.042Z,15.50
2022-11-06T08:41:09.960Z,19.50
2022-11-06T08:43:42.564Z,17.80
2022-11-06T08:46:15.449Z,13.90
2022-11-06T08:48:47.558Z,16.00
2022-11-06T08:51:20.061Z,11.90
2022-11-06T08:53:52.409Z,24.50
2022-11-06T08:56:24.805Z,13.90
2022-11-06T08:58:57.208Z,13.50
2022-11-06T09:01:29.580Z,17.70
2022-11-06T09:04:01.881Z,19.30
2022-11-06T09:06:34.194Z,15.20
2022-11-06T09:09:06.672Z,18.30
2022-11-06T09:11:38.813Z,20.20
2022-11-06T09:14:11.062Z,17.10
2022-11-06T09:16:43.314Z,18.40
2022-11-06T09:19:15.500Z,30.00
2022-11-06T09:21:53.443Z,29.50
2022-11-06T09:24:49.744Z,19.00
2022-11-06T09:27:19.296Z,15.60
2022-11-06T09:29:51.538Z,17.50
2022-11-06T09:32:24.195Z,14.60
2022-11-06T09:34:56.411Z,16.30
2022-11-06T09:37:28.673Z,14.10
2022-11-06T09:40:06.095Z,20.40
2022-11-06T09:42:50.352Z,19.20
2022-11-06T09:45:24.721Z,17.70
2022-11-06T09:48:01.997Z,15.80
2022-11-06T09:50:38.890Z,14.10
2022-11-06T09:53:18.498Z,9.40
2022-11-06T09:55:52.397Z,14.90
2022-11-06T09:58:30.350Z,18.70
2022-11-06T10:01:08.007Z,29.20
2022-11-06T10:03:45.192Z,12.30
2022-11-06T10:06:24.947Z,14.60
2022-11-06T10:09:01.115Z,14.10
2022-11-06T10:11:51.662Z,17.70
2022-11-06T10:14:37.520Z,12.80
2022-11-06T10:17:18.776Z,13.30
2022-11-06T10:19:57.396Z,9.70
2022-11-06T10:22:37.026Z,10.00
2022-11-06T10:25:22.143Z,12.60
2022-11-06T10:28:02.434Z,8.80
2022-11-06T10:30:46.389Z,8.40
2022-11-06T10:33:35.762Z,12.30
2022-11-06T10:36:11.075Z,18.60
2022-11-06T10:38:47.863Z,16.50
2022-11-06T10:41:23.938Z,15.70
2022-11-06T10:44:00.617Z,13.00
2022-11-06T10:46:38.135Z,17.60
2022-11-06T10:49:21.693Z,21.40
2022-11-06T10:52:06.277Z,20.00
2022-11-06T10:54:56.981Z,18.50
2022-11-06T10:57:38.468Z,10.50
2022-11-06T11:00:15.762Z,8.00
2022-11-06T11:02:50.764Z,7.60
2022-11-06T11:07:55.407Z,7.30
2022-11-06T11:10:33.444Z,9.40
2022-11-06T11:13:08.984Z,8.90
2022-11-06T11:15:47.787Z,6.70
2022-11-06T11:18:24.235Z,7.20
2022-11-06T11:21:09.386Z,9.20
2022-11-06T11:26:27.710Z,12.30
2022-11-06T11:29:02.386Z,12.10
2022-11-06T11:31:36.384Z,24.00
2022-11-06T11:34:18.530Z,17.60
2022-11-06T11:36:58.265Z,14.90
2022-11-06T11:39:33.978Z,20.50
2022-11-06T11:42:27.006Z,12.60
2022-11-06T11:45:21.152Z,11.10
2022-11-06T11:48:09.977Z,9.60
2022-11-06T11:50:42.299Z,12.20
2022-11-06T11:53:20.947Z,26.90
2022-11-06T11:55:54.418Z,11.80
2022-11-06T11:58:30.457Z,8.30
2022-11-06T12:01:07.663Z,8.30
2022-11-06T12:03:44.928Z,12.70
2022-11-06T12:06:19.604Z,8.30
2022-11-06T12:08:55.687Z,7.00
2022-11-06T12:11:30.905Z,8.30
2022-11-06T12:14:36.403Z,10.80
2022-11-06T12:17:23.340Z,7.50
2022-11-06T12:19:59.332Z,7.10
2022-11-06T12:22:36.274Z,5.70
2022-11-06T12:25:16.366Z,7.60
2022-11-06T12:27:52.544Z,5.40
2022-11-06T12:30:25.027Z,6.20
2022-11-06T12:33:05.896Z,9.90
2022-11-06T12:35:42.617Z,6.30
2022-11-06T12:38:28.457Z,4.90
2022-11-06T12:41:06.206Z,6.50
2022-11-06T12:43:43.906Z,6.40
2022-11-06T12:46:37.755Z,5.70
2022-11-06T12:49:42.622Z,5.20
2022-11-06T12:52:30.146Z,7.50
2022-11-06T12:55:16.698Z,11.40
2022-11-06T12:58:05.686Z,19.30
2022-11-06T13:00:48.230Z,13.00
2022-11-06T13:03:42.933Z,13.00
2022-11-06T13:06:20.568Z,13.80
2022-11-06T13:09:02.078Z,56.00
2022-11-06T13:11:45.689Z,41.10
2022-11-06T13:14:27.256Z,34.20
2022-11-06T13:17:07.384Z,18.20
2022-11-06T13:19:48.461Z,9.50
2022-11-06T13:22:30.816Z,8.70
2022-11-06T13:25:15.324Z,32.70
2022-11-06T13:27:53.046Z,21.50
2022-11-06T13:30:26.116Z,24.90
2022-11-06T13:33:06.372Z,16.40
2022-11-06T13:35:43.249Z,14.70
2022-11-06T13:38:19.928Z,12.20
2022-11-06T13:41:02.183Z,8.60
2022-11-06T13:43:38.836Z,7.70
2022-11-06T13:46:22.425Z,6.40
2022-11-06T13:49:03.542Z,8.40
2022-11-06T13:51:44.634Z,7.20
2022-11-06T13:54:25.920Z,6.40
2022-11-06T13:57:40.947Z,6.10
2022-11-06T14:00:22.437Z,6.10
2022-11-06T14:03:28.267Z,6.50
2022-11-06T14:08:41.848Z,6.40
2022-11-06T14:11:17.722Z,5.00
2022-11-06T14:14:03.000Z,5.20
2022-11-06T14:16:38.351Z,7.10
2022-11-06T14:19:15.739Z,5.60
2022-11-06T14:21:51.282Z,7.10
2022-11-06T14:24:40.961Z,7.60
2022-11-06T14:27:56.059Z,6.60
2022-11-06T14:31:11.108Z,7.10
2022-11-06T14:34:01.200Z,10.30
2022-11-06T14:36:36.405Z,10.90
2022-11-06T14:39:14.574Z,12.10
2022-11-06T14:42:01.282Z,13.30
2022-11-06T14:44:50.807Z,13.00
2022-11-06T14:47:32.265Z,11.40
2022-11-06T14:50:24.402Z,12.20
2022-11-06T14:53:01.613Z,14.50
2022-11-06T14:55:39.695Z,12.90
2022-11-06T14:58:23.870Z,16.40
2022-11-06T15:00:58.146Z,33.10
2022-11-06T15:03:35.787Z,36.60
2022-11-06T15:06:36.164Z,48.10
2022-11-06T15:09:12.942Z,47.10
2022-11-06T15:11:57.534Z,40.10
2022-11-06T15:15:06.932Z,33.30
2022-11-06T15:17:41.110Z,33.90
2022-11-06T15:20:27.100Z,31.00
2022-11-06T15:23:08.053Z,28.00
2022-11-06T15:25:47.285Z,27.50
2022-11-06T15:28:23.295Z,28.90
2022-11-06T15:31:01.219Z,29.80
2022-11-06T15:33:38.097Z,27.10
2022-11-06T15:36:14.797Z,28.10
2022-11-06T15:38:47.282Z,30.00
2022-11-06T15:41:23.589Z,33.60
2022-11-06T15:43:57.804Z,28.40
2022-11-06T15:46:31.073Z,28.30
2022-11-06T15:49:19.626Z,42.60
2022-11-06T15:51:57.507Z,45.80
2022-11-06T15:54:38.537Z,50.90
2022-11-06T15:57:18.634Z,62.10
2022-11-06T15:59:51.163Z,58.50
2022-11-06T16:02:24.528Z,52.00
2022-11-06T16:04:56.983Z,40.80
2022-11-06T16:07:29.541Z,30.40
2022-11-06T16:10:01.856Z,23.10
2022-11-06T16:12:34.382Z,17.10
2022-11-06T16:15:07.563Z,16.50
2022-11-06T16:17:44.009Z,21.70
2022-11-06T16:20:18.516Z,20.50
2022-11-06T16:22:50.709Z,22.10
2022-11-06T16:25:23.004Z,18.00
2022-11-06T16:27:55.250Z,66.10
2022-11-06T16:30:27.752Z,30.50
2022-11-06T16:33:00.047Z,30.30
2022-11-06T16:35:37.801Z,35.80
2022-11-06T16:38:46.640Z,27.00
2022-11-06T16:41:37.992Z,69.80
2022-11-06T16:44:45.369Z,40.30
2022-11-06T16:47:19.316Z,32.40
2022-11-06T16:49:54.474Z,33.70
2022-11-06T16:52:30.035Z,29.30
2022-11-06T16:55:05.644Z,25.20
2022-11-06T16:57:45.046Z,20.10
2022-11-06T17:00:27.457Z,23.40
2022-11-06T17:03:02.391Z,21.50
2022-11-06T17:05:36.884Z,22.40
2022-11-06T17:08:22.370Z,23.30
2022-11-06T17:10:55.452Z,13.00
2022-11-06T17:13:29.989Z,20.30
2022-11-06T17:16:03.701Z,20.40
2022-11-06T17:18:37.771Z,31.00
2022-11-06T17:21:15.465Z,16.90
2022-11-06T17:23:48.940Z,13.70
2022-11-06T17:26:24.128Z,16.80
2022-11-06T17:28:57.630Z,32.60
2022-11-06T17:31:30.697Z,20.40
2022-11-06T17:34:02.811Z,14.80
2022-11-06T17:36:35.490Z,18.00
2022-11-06T17:39:08.898Z,40.20
2022-11-06T17:41:41.467Z,27.20
2022-11-06T17:44:15.629Z,24.60
2022-11-06T17:46:48.694Z,21.50
2022-11-06T17:49:20.913Z,31.60
2022-11-06T17:52:00.246Z,25.00
2022-11-06T17:54:37.162Z,28.60
2022-11-06T17:57:10.420Z,39.70
2022-11-06T17:59:42.610Z,60.60
2022-11-06T18:02:29.781Z,88.60
2022-11-06T18:05:10.169Z,105.20
2022-11-06T18:07:42.367Z,63.90
2022-11-06T18:10:14.484Z,45.60
2022-11-06T18:12:51.340Z,25.90
2022-11-06T18:15:23.556Z,30.70
2022-11-06T18:17:55.740Z,33.50
2022-11-06T18:20:27.918Z,44.40
2022-11-06T18:23:00.005Z,46.80
2022-11-06T18:25:32.181Z,44.10
2022-11-06T18:28:04.449Z,38.80
2022-11-06T18:30:38.275Z,25.90
2022-11-06T18:33:10.380Z,34.40
2022-11-06T18:35:42.618Z,29.20
2022-11-06T18:38:16.136Z,43.00
2022-11-06T18:40:51.630Z,32.20
2022-11-06T18:43:24.872Z,27.00
2022-11-06T18:45:57.101Z,26.30
2022-11-06T18:48:29.295Z,29.50
2022-11-06T18:51:07.909Z,23.20
2022-11-06T18:53:41.147Z,24.90
2022-11-06T18:56:14.659Z,29.90
2022-11-06T18:58:47.209Z,28.30
2022-11-06T19:01:20.595Z,35.80
2022-11-06T19:03:53.004Z,36.20
2022-11-06T19:06:25.307Z,42.50
2022-11-06T19:08:57.496Z,29.20
2022-11-06T19:11:29.773Z,38.10
2022-11-06T19:14:01.972Z,28.00
2022-11-06T19:16:34.666Z,22.80
2022-11-06T19:19:08.229Z,30.70
2022-11-06T19:21:46.125Z,21.20
2022-11-06T19:24:19.184Z,18.70
2022-11-06T19:26:51.533Z,20.10
2022-11-06T19:29:23.980Z,49.60
2022-11-06T19:32:01.603Z,34.70
2022-11-06T19:34:38.899Z,57.70
2022-11-06T19:37:11.522Z,53.20
2022-11-06T19:39:43.687Z,36.90
2022-11-06T19:42:15.854Z,33.40
2022-11-06T19:44:47.998Z,26.00
2022-11-06T19:47:20.140Z,21.60
2022-11-06T19:49:52.251Z,19.00
2022-11-06T19:52:42.261Z,21.60
2022-11-06T19:55:26.696Z,17.30
2022-11-06T19:58:01.581Z,23.70
2022-11-06T20:00:33.738Z,41.90
2022-11-06T20:03:06.105Z,58.20
2022-11-06T20:05:39.519Z,136.90
2022-11-06T20:08:12.151Z,67.80
2022-11-06T20:10:44.372Z,31.40
2022-11-06T20:13:16.854Z,40.40
2022-11-06T20:15:49.447Z,38.10
2022-11-06T20:18:21.667Z,58.10
2022-11-06T20:20:53.808Z,50.70
2022-11-06T20:23:26.041Z,41.20
2022-11-06T20:25:58.762Z,48.20
2022-11-06T20:28:31.624Z,47.30
2022-11-06T20:31:08.506Z,40.30
2022-11-06T20:33:41.106Z,32.60
2022-11-06T20:36:15.496Z,64.50
2022-11-06T20:38:48.132Z,36.70
2022-11-06T20:41:20.729Z,37.50
2022-11-06T20:43:54.131Z,32.80
2022-11-06T20:46:27.342Z,25.90
2022-11-06T20:48:59.616Z,28.50
2022-11-06T20:51:42.972Z,35.00
2022-11-06T20:54:20.821Z,29.00
2022-11-06T20:56:53.014Z,30.40
2022-11-06T20:59:25.524Z,30.40
2022-11-06T21:01:57.857Z,28.60
2022-11-06T21:04:30.212Z,30.70
2022-11-06T21:07:02.488Z,34.70
2022-11-06T21:09:34.621Z,33.60
2022-11-06T21:12:09.070Z,30.80
2022-11-06T21:14:41.496Z,29.10
2022-11-06T21:17:13.713Z,35.40
2022-11-06T21:19:45.891Z,50.10
2022-11-06T21:22:18.127Z,41.80
2022-11-06T21:24:50.450Z,44.40
2022-11-06T21:27:22.719Z,49.00
2022-11-06T21:29:56.028Z,42.80
2022-11-06T21:32:28.362Z,37.20
2022-11-06T21:35:00.582Z,35.00
2022-11-06T21:37:34.437Z,32.90
2022-11-06T21:40:08.293Z,38.10
2022-11-06T21:42:40.696Z,57.00
2022-11-06T21:45:14.926Z,77.10
2022-11-06T21:47:47.771Z,38.10
2022-11-06T21:50:28.259Z,32.30
2022-11-06T21:53:19.736Z,41.40
2022-11-06T21:56:02.023Z,30.60
2022-11-06T21:58:34.748Z,30.40
2022-11-06T22:01:08.104Z,27.10
2022-11-06T22:03:41.441Z,48.10
2022-11-06T22:06:15.906Z,43.70
2022-11-06T22:08:49.493Z,32.80
2022-11-06T22:11:23.749Z,23.00
2022-11-06T22:13:57.304Z,29.60
2022-11-06T22:16:31.573Z,21.70
2022-11-06T22:19:04.679Z,30.90
2022-11-06T22:21:39.169Z,22.80
2022-11-06T22:24:14.249Z,24.20
2022-11-06T22:26:46.460Z,22.10
2022-11-06T22:29:18.733Z,28.60
2022-11-06T22:31:52.379Z,27.50
2022-11-06T22:34:24.616Z,25.00
2022-11-06T22:36:56.874Z,23.90
2022-11-06T22:39:29.125Z,32.80
2022-11-06T22:42:01.446Z,33.70
2022-11-06T22:44:36.550Z,26.80
2022-11-06T22:47:09.287Z,24.80
2022-11-06T22:49:41.453Z,32.50
2022-11-06T22:52:13.599Z,25.40
2022-11-06T22:54:45.841Z,30.40
2022-11-06T22:57:18.096Z,23.60
2022-11-06T22:59:50.153Z,20.80
2022-11-06T23:02:22.500Z,20.50
2022-11-06T23:04:54.821Z,20.50
2022-11-06T23:07:27.041Z,19.40
2022-11-06T23:09:59.261Z,21.70
2022-11-06T23:12:31.478Z,20.20
2022-11-06T23:15:03.905Z,21.60
2022-11-06T23:17:38.498Z,21.40
2022-11-06T23:20:13.026Z,24.50
2022-11-06T23:22:45.348Z,21.20
2022-11-06T23:25:20.102Z,29.60
2022-11-06T23:27:52.372Z,47.20
2022-11-06T23:30:24.646Z,32.20
2022-11-06T23:32:57.653Z,28.30
2022-11-06T23:35:32.676Z,34.70
2022-11-06T23:38:05.271Z,28.60
2022-11-06T23:40:37.489Z,32.90
2022-11-06T23:43:09.719Z,25.20
2022-11-06T23:45:51.650Z,23.60
2022-11-06T23:48:24.265Z,15.50
2022-11-06T23:50:56.582Z,15.30
2022-11-06T23:53:28.784Z,15.70
2022-11-06T23:56:05.629Z,15.80
2022-11-06T23:58:38.876Z,16.30
